Booker, TX (79005)

1:50 AM CST on December 26, 2014 (GMT -0600)
Zender Laundromat | Change Station
CLOSE
Current Station
Personal Weather Station
Location: Booker, TX
Elevation: 2844 ft
Nearby Weather Stations

Elev 2844 ft 36.45 °N, 100.54 °W | Updated 8 seconds ago

Clear
Clear
38.8 °F
Feels Like 37 °F
N
3.1
Wind Variable Wind from NW
Gusts 3.1 mph

Today
High -- | Low -- °F
--% Chance of Precip.
Yesterday
High -- | Low -- °F
Precip. -- in
7:52 AM 5:33 PM
Waxing Crescent, 23% visible
Pressure 29.74 in
Visibility 10.0 miles
Clouds Clear
Windchill 37 °F
Dew Point 28 °F
Humidity 64%
Rainfall 0.00 in
Snow Depth Not available.
UV 0 out of 12
Pollen .10 out of 12
Air Quality Not available.
Flu Activity Not available.
METAR KPYX 260735Z AUTO 35006KT 10SM CLR 03/M05 A2974 RMK AO2 T00251051

More Conditions Fewer Conditions

Pressure 29.74 in
Visibility 10.0 miles
Clouds Clear
Windchill 37 °F
Dew Point 28 °F
Humidity 64%
Rainfall 0.00 in
Snow Depth Not available.
UV 0 out of 12
Pollen .10 out of 12
Air Quality Not available.
Flu Activity Not available.
METAR KPYX 260735Z AUTO 35006KT 10SM CLR 03/M05 A2974 RMK AO2 T00251051

More Conditions Fewer Conditions

10-Day Weather Forecast

Almanac

Astronomy

Dec. 26, 2014 Rise Set
Actual Time
Civil Twilight
Nautical Twilight
Astronomical Twilight
Moon
Length of Visible Light
Length of Day
Tomorrow will be .
, % of the Moon is Illuminated

Today's Extremes

State Highs State Lows

Community

WunderPhotos

Upload Photos

1,780,571 photos uploaded!

WunderBlogs® & News

Nearby

Air Quality

  Air Quality AQ Index Pollutant
Not available.

Snow Depth

Station Depth Elevation

Earthquake Activity

City Distance Mag. Time & Date
Minimum magnitude displayed is 2.5.

Coastal Water Temperatures

Place Temperature

Nearby Weather Stations